sensor_id;sensor_type;location;lat;lon;timestamp;P1;durP1;ratioP1;P2;durP2;ratioP2
35084;SDS011;21267;51.032;6.998;2023-06-14T00:01:38;7.05;;;5.60;;
35084;SDS011;21267;51.032;6.998;2023-06-14T00:04:19;6.28;;;5.60;;
35084;SDS011;21267;51.032;6.998;2023-06-14T00:07:00;6.90;;;5.65;;
35084;SDS011;21267;51.032;6.998;2023-06-14T00:09:41;7.50;;;5.20;;
35084;SDS011;21267;51.032;6.998;2023-06-14T00:12:21;7.80;;;5.57;;
35084;SDS011;21267;51.032;6.998;2023-06-14T00:15:03;6.07;;;5.55;;
35084;SDS011;21267;51.032;6.998;2023-06-14T00:17:44;7.53;;;5.55;;
35084;SDS011;21267;51.032;6.998;2023-06-14T00:20:30;6.40;;;5.80;;
35084;SDS011;21267;51.032;6.998;2023-06-14T00:23:13;6.25;;;5.65;;
35084;SDS011;21267;51.032;6.998;2023-06-14T00:25:53;7.85;;;5.88;;
35084;SDS011;21267;51.032;6.998;2023-06-14T00:28:36;8.52;;;6.25;;
35084;SDS011;21267;51.032;6.998;2023-06-14T00:31:17;7.30;;;6.18;;
35084;SDS011;21267;51.032;6.998;2023-06-14T00:33:44;7.00;;;5.43;;
35084;SDS011;21267;51.032;6.998;2023-06-14T00:36:11;9.05;;;5.45;;
35084;SDS011;21267;51.032;6.998;2023-06-14T00:38:39;6.20;;;5.60;;
35084;SDS011;21267;51.032;6.998;2023-06-14T00:41:18;6.38;;;5.78;;
35084;SDS011;21267;51.032;6.998;2023-06-14T00:43:45;8.40;;;5.38;;
35084;SDS011;21267;51.032;6.998;2023-06-14T00:46:13;6.65;;;6.05;;
35084;SDS011;21267;51.032;6.998;2023-06-14T00:48:45;6.88;;;5.60;;
35084;SDS011;21267;51.032;6.998;2023-06-14T00:51:16;9.88;;;6.07;;
35084;SDS011;21267;51.032;6.998;2023-06-14T00:53:44;6.43;;;5.82;;
35084;SDS011;21267;51.032;6.998;2023-06-14T00:56:14;5.93;;;5.38;;
35084;SDS011;21267;51.032;6.998;2023-06-14T00:58:42;8.32;;;6.18;;
35084;SDS011;21267;51.032;6.998;2023-06-14T01:01:10;8.45;;;5.40;;
35084;SDS011;21267;51.032;6.998;2023-06-14T01:03:39;6.70;;;5.55;;
35084;SDS011;21267;51.032;6.998;2023-06-14T01:09:25;8.23;;;5.60;;
35084;SDS011;21267;51.032;6.998;2023-06-14T01:12:05;8.18;;;6.10;;
35084;SDS011;21267;51.032;6.998;2023-06-14T01:14:38;9.65;;;5.55;;
35084;SDS011;21267;51.032;6.998;2023-06-14T01:17:05;5.95;;;5.28;;
35084;SDS011;21267;51.032;6.998;2023-06-14T01:19:42;7.35;;;5.93;;
35084;SDS011;21267;51.032;6.998;2023-06-14T01:22:15;6.25;;;5.72;;
35084;SDS011;21267;51.032;6.998;2023-06-14T01:24:46;6.30;;;5.70;;
35084;SDS011;21267;51.032;6.998;2023-06-14T01:27:13;8.00;;;5.72;;
35084;SDS011;21267;51.032;6.998;2023-06-14T01:29:42;6.68;;;5.97;;
35084;SDS011;21267;51.032;6.998;2023-06-14T01:32:29;6.70;;;5.53;;
35084;SDS011;21267;51.032;6.998;2023-06-14T01:34:56;6.72;;;5.63;;
35084;SDS011;21267;51.032;6.998;2023-06-14T01:37:25;9.55;;;5.82;;
35084;SDS011;21267;51.032;6.998;2023-06-14T01:39:53;6.43;;;5.55;;
35084;SDS011;21267;51.032;6.998;2023-06-14T01:42:23;10.00;;;5.70;;
35084;SDS011;21267;51.032;6.998;2023-06-14T01:44:53;6.55;;;5.93;;
35084;SDS011;21267;51.032;6.998;2023-06-14T01:47:21;5.90;;;5.20;;
35084;SDS011;21267;51.032;6.998;2023-06-14T01:52:19;7.22;;;5.68;;
35084;SDS011;21267;51.032;6.998;2023-06-14T01:54:46;7.87;;;5.60;;
35084;SDS011;21267;51.032;6.998;2023-06-14T01:57:14;6.25;;;5.57;;
35084;SDS011;21267;51.032;6.998;2023-06-14T01:59:41;8.55;;;5.70;;
35084;SDS011;21267;51.032;6.998;2023-06-14T02:02:08;6.57;;;5.27;;
35084;SDS011;21267;51.032;6.998;2023-06-14T02:04:36;7.43;;;5.53;;
35084;SDS011;21267;51.032;6.998;2023-06-14T02:07:03;7.38;;;6.05;;
35084;SDS011;21267;51.032;6.998;2023-06-14T02:09:30;6.28;;;5.68;;
35084;SDS011;21267;51.032;6.998;2023-06-14T02:11:58;7.30;;;5.55;;
35084;SDS011;21267;51.032;6.998;2023-06-14T02:14:27;6.15;;;5.55;;
35084;SDS011;21267;51.032;6.998;2023-06-14T02:16:54;7.85;;;5.53;;
35084;SDS011;21267;51.032;6.998;2023-06-14T02:21:53;5.45;;;4.68;;
35084;SDS011;21267;51.032;6.998;2023-06-14T02:24:27;6.03;;;5.43;;
35084;SDS011;21267;51.032;6.998;2023-06-14T02:26:54;5.82;;;5.18;;
35084;SDS011;21267;51.032;6.998;2023-06-14T02:29:21;17.00;;;5.57;;
35084;SDS011;21267;51.032;6.998;2023-06-14T02:31:49;8.98;;;5.93;;
35084;SDS011;21267;51.032;6.998;2023-06-14T02:34:18;6.07;;;5.40;;
35084;SDS011;21267;51.032;6.998;2023-06-14T02:36:47;8.60;;;5.82;;
35084;SDS011;21267;51.032;6.998;2023-06-14T02:39:19;5.80;;;5.20;;
35084;SDS011;21267;51.032;6.998;2023-06-14T02:41:48;8.35;;;6.10;;
35084;SDS011;21267;51.032;6.998;2023-06-14T02:44:29;5.80;;;5.30;;
35084;SDS011;21267;51.032;6.998;2023-06-14T02:46:58;5.95;;;5.35;;
35084;SDS011;21267;51.032;6.998;2023-06-14T02:49:29;7.80;;;6.25;;
35084;SDS011;21267;51.032;6.998;2023-06-14T02:51:58;6.15;;;5.45;;
35084;SDS011;21267;51.032;6.998;2023-06-14T02:54:32;6.07;;;5.40;;
35084;SDS011;21267;51.032;6.998;2023-06-14T02:57:06;10.20;;;7.38;;
35084;SDS011;21267;51.032;6.998;2023-06-14T03:02:15;6.82;;;6.13;;
35084;SDS011;21267;51.032;6.998;2023-06-14T03:04:45;6.60;;;5.55;;
35084;SDS011;21267;51.032;6.998;2023-06-14T03:07:13;8.75;;;5.88;;
35084;SDS011;21267;51.032;6.998;2023-06-14T03:09:44;7.53;;;5.88;;
35084;SDS011;21267;51.032;6.998;2023-06-14T03:12:14;6.30;;;5.70;;
35084;SDS011;21267;51.032;6.998;2023-06-14T03:14:41;6.90;;;6.22;;
35084;SDS011;21267;51.032;6.998;2023-06-14T03:17:08;7.55;;;5.65;;
35084;SDS011;21267;51.032;6.998;2023-06-14T03:19:36;6.30;;;5.40;;
35084;SDS011;21267;51.032;6.998;2023-06-14T03:22:04;6.70;;;5.90;;
35084;SDS011;21267;51.032;6.998;2023-06-14T03:24:33;6.33;;;5.73;;
35084;SDS011;21267;51.032;6.998;2023-06-14T03:27:04;6.60;;;5.70;;
35084;SDS011;21267;51.032;6.998;2023-06-14T03:29:31;6.35;;;5.75;;
35084;SDS011;21267;51.032;6.998;2023-06-14T03:31:59;9.65;;;5.53;;
35084;SDS011;21267;51.032;6.998;2023-06-14T03:34:29;5.95;;;5.45;;
35084;SDS011;21267;51.032;6.998;2023-06-14T03:37:09;6.28;;;5.50;;
35084;SDS011;21267;51.032;6.998;2023-06-14T03:39:36;7.87;;;5.93;;
35084;SDS011;21267;51.032;6.998;2023-06-14T03:42:05;9.57;;;6.03;;
35084;SDS011;21267;51.032;6.998;2023-06-14T03:44:33;7.35;;;6.05;;
35084;SDS011;21267;51.032;6.998;2023-06-14T03:47:02;8.95;;;5.78;;
35084;SDS011;21267;51.032;6.998;2023-06-14T03:49:31;8.65;;;5.78;;
35084;SDS011;21267;51.032;6.998;2023-06-14T03:52:05;7.68;;;5.75;;
35084;SDS011;21267;51.032;6.998;2023-06-14T03:54:36;7.97;;;6.03;;
35084;SDS011;21267;51.032;6.998;2023-06-14T03:57:06;8.48;;;5.93;;
35084;SDS011;21267;51.032;6.998;2023-06-14T03:59:33;8.23;;;6.00;;
35084;SDS011;21267;51.032;6.998;2023-06-14T04:02:17;6.78;;;6.03;;
35084;SDS011;21267;51.032;6.998;2023-06-14T04:04:44;8.25;;;5.82;;
35084;SDS011;21267;51.032;6.998;2023-06-14T04:07:12;7.95;;;5.28;;
35084;SDS011;21267;51.032;6.998;2023-06-14T04:09:53;7.85;;;5.28;;
35084;SDS011;21267;51.032;6.998;2023-06-14T04:12:20;5.88;;;4.80;;
35084;SDS011;21267;51.032;6.998;2023-06-14T04:14:49;6.03;;;5.38;;
35084;SDS011;21267;51.032;6.998;2023-06-14T04:17:18;6.63;;;6.03;;
35084;SDS011;21267;51.032;6.998;2023-06-14T04:19:45;12.95;;;6.43;;
35084;SDS011;21267;51.032;6.998;2023-06-14T04:22:12;6.67;;;5.40;;
35084;SDS011;21267;51.032;6.998;2023-06-14T04:24:41;7.53;;;5.28;;
35084;SDS011;21267;51.032;6.998;2023-06-14T04:27:12;8.35;;;5.18;;
35084;SDS011;21267;51.032;6.998;2023-06-14T04:29:41;6.75;;;6.05;;
35084;SDS011;21267;51.032;6.998;2023-06-14T04:32:14;8.55;;;5.18;;
35084;SDS011;21267;51.032;6.998;2023-06-14T04:34:45;6.85;;;5.55;;
35084;SDS011;21267;51.032;6.998;2023-06-14T04:37:15;6.07;;;5.50;;
35084;SDS011;21267;51.032;6.998;2023-06-14T04:39:44;7.22;;;4.88;;
35084;SDS011;21267;51.032;6.998;2023-06-14T04:42:11;6.50;;;5.53;;
35084;SDS011;21267;51.032;6.998;2023-06-14T04:44:43;12.32;;;4.63;;
35084;SDS011;21267;51.032;6.998;2023-06-14T04:47:11;7.43;;;5.30;;
35084;SDS011;21267;51.032;6.998;2023-06-14T04:49:52;12.52;;;5.95;;
35084;SDS011;21267;51.032;6.998;2023-06-14T04:52:20;10.00;;;5.28;;
35084;SDS011;21267;51.032;6.998;2023-06-14T04:54:53;7.07;;;4.70;;
35084;SDS011;21267;51.032;6.998;2023-06-14T04:57:34;7.10;;;4.90;;
35084;SDS011;21267;51.032;6.998;2023-06-14T05:00:01;5.53;;;4.38;;
35084;SDS011;21267;51.032;6.998;2023-06-14T05:02:32;5.30;;;4.80;;
35084;SDS011;21267;51.032;6.998;2023-06-14T05:05:05;4.95;;;4.25;;
35084;SDS011;21267;51.032;6.998;2023-06-14T05:07:34;12.93;;;5.32;;
35084;SDS011;21267;51.032;6.998;2023-06-14T05:10:01;7.07;;;5.20;;
35084;SDS011;21267;51.032;6.998;2023-06-14T05:12:28;5.55;;;4.68;;
35084;SDS011;21267;51.032;6.998;2023-06-14T05:14:59;5.18;;;4.57;;
35084;SDS011;21267;51.032;6.998;2023-06-14T05:17:26;6.53;;;4.50;;
35084;SDS011;21267;51.032;6.998;2023-06-14T05:19:54;8.40;;;5.20;;
35084;SDS011;21267;51.032;6.998;2023-06-14T05:22:25;5.13;;;4.45;;
35084;SDS011;21267;51.032;6.998;2023-06-14T05:24:53;8.40;;;4.25;;
35084;SDS011;21267;51.032;6.998;2023-06-14T05:27:19;6.93;;;4.40;;
35084;SDS011;21267;51.032;6.998;2023-06-14T05:29:47;5.65;;;4.88;;
35084;SDS011;21267;51.032;6.998;2023-06-14T05:32:16;7.03;;;4.25;;
35084;SDS011;21267;51.032;6.998;2023-06-14T05:34:57;10.40;;;4.32;;
35084;SDS011;21267;51.032;6.998;2023-06-14T05:37:39;7.75;;;4.53;;
35084;SDS011;21267;51.032;6.998;2023-06-14T05:40:07;7.07;;;4.30;;
35084;SDS011;21267;51.032;6.998;2023-06-14T05:42:36;9.00;;;4.72;;
35084;SDS011;21267;51.032;6.998;2023-06-14T05:45:03;6.75;;;4.03;;
35084;SDS011;21267;51.032;6.998;2023-06-14T05:47:33;6.82;;;4.53;;
35084;SDS011;21267;51.032;6.998;2023-06-14T05:52:27;10.25;;;4.85;;
35084;SDS011;21267;51.032;6.998;2023-06-14T05:54:54;8.00;;;3.93;;
35084;SDS011;21267;51.032;6.998;2023-06-14T05:57:21;5.93;;;4.93;;
35084;SDS011;21267;51.032;6.998;2023-06-14T05:59:51;6.72;;;4.80;;
35084;SDS011;21267;51.032;6.998;2023-06-14T06:02:18;4.15;;;3.70;;
35084;SDS011;21267;51.032;6.998;2023-06-14T06:04:45;5.77;;;4.00;;
35084;SDS011;21267;51.032;6.998;2023-06-14T06:07:13;9.57;;;4.30;;
35084;SDS011;21267;51.032;6.998;2023-06-14T06:09:40;7.53;;;4.00;;
35084;SDS011;21267;51.032;6.998;2023-06-14T06:12:07;7.53;;;3.80;;
35084;SDS011;21267;51.032;6.998;2023-06-14T06:14:34;10.35;;;3.97;;
35084;SDS011;21267;51.032;6.998;2023-06-14T06:17:01;4.05;;;3.10;;
35084;SDS011;21267;51.032;6.998;2023-06-14T06:19:28;4.70;;;3.50;;
35084;SDS011;21267;51.032;6.998;2023-06-14T06:21:55;12.80;;;8.13;;
35084;SDS011;21267;51.032;6.998;2023-06-14T06:24:22;7.77;;;4.50;;
35084;SDS011;21267;51.032;6.998;2023-06-14T06:26:49;7.55;;;3.58;;
35084;SDS011;21267;51.032;6.998;2023-06-14T06:33:38;7.57;;;3.65;;
35084;SDS011;21267;51.032;6.998;2023-06-14T06:36:07;8.02;;;4.25;;
35084;SDS011;21267;51.032;6.998;2023-06-14T06:38:36;7.18;;;3.30;;
35084;SDS011;21267;51.032;6.998;2023-06-14T06:41:02;6.67;;;3.30;;
35084;SDS011;21267;51.032;6.998;2023-06-14T06:43:31;6.28;;;3.30;;
35084;SDS011;21267;51.032;6.998;2023-06-14T06:45:58;3.10;;;2.80;;
35084;SDS011;21267;51.032;6.998;2023-06-14T06:48:25;5.25;;;4.28;;
35084;SDS011;21267;51.032;6.998;2023-06-14T06:50:52;4.73;;;3.20;;
35084;SDS011;21267;51.032;6.998;2023-06-14T06:53:36;7.20;;;3.55;;
35084;SDS011;21267;51.032;6.998;2023-06-14T06:56:10;6.63;;;4.20;;
35084;SDS011;21267;51.032;6.998;2023-06-14T06:58:37;6.07;;;3.03;;
35084;SDS011;21267;51.032;6.998;2023-06-14T07:01:05;4.93;;;2.78;;
35084;SDS011;21267;51.032;6.998;2023-06-14T07:03:31;2.40;;;2.20;;
35084;SDS011;21267;51.032;6.998;2023-06-14T07:05:58;3.78;;;2.95;;
35084;SDS011;21267;51.032;6.998;2023-06-14T07:08:26;3.50;;;2.78;;
35084;SDS011;21267;51.032;6.998;2023-06-14T07:10:53;4.72;;;2.70;;
35084;SDS011;21267;51.032;6.998;2023-06-14T07:13:21;2.65;;;2.45;;
35084;SDS011;21267;51.032;6.998;2023-06-14T07:15:48;2.60;;;2.17;;
35084;SDS011;21267;51.032;6.998;2023-06-14T07:18:32;9.23;;;3.15;;
35084;SDS011;21267;51.032;6.998;2023-06-14T07:21:06;4.90;;;2.60;;
35084;SDS011;21267;51.032;6.998;2023-06-14T07:23:33;7.40;;;5.17;;
35084;SDS011;21267;51.032;6.998;2023-06-14T07:26:02;3.78;;;2.70;;
35084;SDS011;21267;51.032;6.998;2023-06-14T07:30:56;3.70;;;2.20;;
35084;SDS011;21267;51.032;6.998;2023-06-14T07:33:22;5.83;;;2.33;;
35084;SDS011;21267;51.032;6.998;2023-06-14T07:35:49;4.07;;;2.15;;
35084;SDS011;21267;51.032;6.998;2023-06-14T07:38:18;3.63;;;2.65;;
35084;SDS011;21267;51.032;6.998;2023-06-14T07:40:45;2.15;;;1.60;;
35084;SDS011;21267;51.032;6.998;2023-06-14T07:43:13;2.17;;;1.65;;
35084;SDS011;21267;51.032;6.998;2023-06-14T07:45:40;1.70;;;1.60;;
35084;SDS011;21267;51.032;6.998;2023-06-14T07:48:19;2.30;;;1.90;;
35084;SDS011;21267;51.032;6.998;2023-06-14T07:50:46;2.75;;;1.38;;
35084;SDS011;21267;51.032;6.998;2023-06-14T07:53:13;4.43;;;1.40;;
35084;SDS011;21267;51.032;6.998;2023-06-14T07:55:40;2.45;;;1.30;;
35084;SDS011;21267;51.032;6.998;2023-06-14T07:58:19;2.70;;;1.30;;
35084;SDS011;21267;51.032;6.998;2023-06-14T08:00:45;3.97;;;1.60;;
35084;SDS011;21267;51.032;6.998;2023-06-14T08:03:14;3.17;;;1.30;;
35084;SDS011;21267;51.032;6.998;2023-06-14T08:05:42;2.50;;;2.08;;
35084;SDS011;21267;51.032;6.998;2023-06-14T08:08:09;3.53;;;1.43;;
35084;SDS011;21267;51.032;6.998;2023-06-14T08:10:36;2.05;;;1.70;;
35084;SDS011;21267;51.032;6.998;2023-06-14T08:13:03;6.47;;;1.90;;
35084;SDS011;21267;51.032;6.998;2023-06-14T08:15:29;3.73;;;1.80;;
35084;SDS011;21267;51.032;6.998;2023-06-14T08:17:57;2.30;;;1.70;;
35084;SDS011;21267;51.032;6.998;2023-06-14T08:20:26;4.63;;;1.40;;
35084;SDS011;21267;51.032;6.998;2023-06-14T08:22:53;2.92;;;1.75;;
35084;SDS011;21267;51.032;6.998;2023-06-14T08:25:23;1.45;;;1.35;;
35084;SDS011;21267;51.032;6.998;2023-06-14T08:27:51;3.40;;;2.28;;
35084;SDS011;21267;51.032;6.998;2023-06-14T08:30:19;3.35;;;2.53;;
35084;SDS011;21267;51.032;6.998;2023-06-14T08:32:46;3.28;;;2.25;;
35084;SDS011;21267;51.032;6.998;2023-06-14T08:35:24;5.72;;;2.20;;
35084;SDS011;21267;51.032;6.998;2023-06-14T08:40:19;4.45;;;2.30;;
35084;SDS011;21267;51.032;6.998;2023-06-14T08:42:52;6.07;;;1.60;;
35084;SDS011;21267;51.032;6.998;2023-06-14T08:45:23;2.70;;;1.65;;
35084;SDS011;21267;51.032;6.998;2023-06-14T08:47:56;2.40;;;1.80;;
35084;SDS011;21267;51.032;6.998;2023-06-14T08:50:27;3.08;;;1.80;;
35084;SDS011;21267;51.032;6.998;2023-06-14T08:53:00;5.18;;;1.60;;
35084;SDS011;21267;51.032;6.998;2023-06-14T08:55:31;5.07;;;1.90;;
35084;SDS011;21267;51.032;6.998;2023-06-14T08:58:03;3.15;;;1.98;;
35084;SDS011;21267;51.032;6.998;2023-06-14T09:00:31;3.95;;;1.92;;
35084;SDS011;21267;51.032;6.998;2023-06-14T09:03:03;3.38;;;1.88;;
35084;SDS011;21267;51.032;6.998;2023-06-14T09:05:32;3.47;;;1.65;;
35084;SDS011;21267;51.032;6.998;2023-06-14T09:07:59;1.83;;;1.67;;
35084;SDS011;21267;51.032;6.998;2023-06-14T09:10:32;3.38;;;1.63;;
35084;SDS011;21267;51.032;6.998;2023-06-14T09:13:01;1.80;;;1.63;;
35084;SDS011;21267;51.032;6.998;2023-06-14T09:15:29;2.35;;;1.70;;
35084;SDS011;21267;51.032;6.998;2023-06-14T09:17:57;3.30;;;1.60;;
35084;SDS011;21267;51.032;6.998;2023-06-14T09:20:24;3.13;;;1.95;;
35084;SDS011;21267;51.032;6.998;2023-06-14T09:22:51;3.92;;;1.63;;
35084;SDS011;21267;51.032;6.998;2023-06-14T09:25:19;2.47;;;1.83;;
35084;SDS011;21267;51.032;6.998;2023-06-14T09:28:06;1.95;;;1.70;;
35084;SDS011;21267;51.032;6.998;2023-06-14T09:30:35;4.32;;;1.90;;
35084;SDS011;21267;51.032;6.998;2023-06-14T09:33:04;5.25;;;1.73;;
35084;SDS011;21267;51.032;6.998;2023-06-14T09:35:32;1.92;;;1.73;;
35084;SDS011;21267;51.032;6.998;2023-06-14T09:37:59;6.35;;;1.85;;
35084;SDS011;21267;51.032;6.998;2023-06-14T09:40:26;5.60;;;2.00;;
35084;SDS011;21267;51.032;6.998;2023-06-14T09:42:53;2.17;;;1.98;;
35084;SDS011;21267;51.032;6.998;2023-06-14T09:45:21;3.15;;;2.00;;
35084;SDS011;21267;51.032;6.998;2023-06-14T09:47:50;3.08;;;2.10;;
35084;SDS011;21267;51.032;6.998;2023-06-14T09:50:31;4.35;;;1.70;;
35084;SDS011;21267;51.032;6.998;2023-06-14T09:53:01;4.05;;;2.00;;
35084;SDS011;21267;51.032;6.998;2023-06-14T09:55:37;2.63;;;1.83;;
35084;SDS011;21267;51.032;6.998;2023-06-14T09:58:06;5.50;;;2.50;;
35084;SDS011;21267;51.032;6.998;2023-06-14T10:00:34;6.15;;;2.10;;
35084;SDS011;21267;51.032;6.998;2023-06-14T10:03:06;2.55;;;2.08;;
35084;SDS011;21267;51.032;6.998;2023-06-14T10:05:39;2.55;;;1.60;;
35084;SDS011;21267;51.032;6.998;2023-06-14T10:08:08;2.75;;;2.17;;
35084;SDS011;21267;51.032;6.998;2023-06-14T10:10:40;6.88;;;1.90;;
35084;SDS011;21267;51.032;6.998;2023-06-14T10:13:09;4.25;;;1.90;;
35084;SDS011;21267;51.032;6.998;2023-06-14T10:21:08;6.30;;;2.45;;
35084;SDS011;21267;51.032;6.998;2023-06-14T10:23:55;3.97;;;2.30;;
35084;SDS011;21267;51.032;6.998;2023-06-14T10:26:25;3.38;;;1.90;;
35084;SDS011;21267;51.032;6.998;2023-06-14T10:28:59;3.03;;;2.42;;
35084;SDS011;21267;51.032;6.998;2023-06-14T10:34:20;2.88;;;2.10;;
35084;SDS011;21267;51.032;6.998;2023-06-14T10:37:06;5.78;;;2.78;;
35084;SDS011;21267;51.032;6.998;2023-06-14T10:42:08;10.88;;;2.50;;
35084;SDS011;21267;51.032;6.998;2023-06-14T10:44:51;4.32;;;2.22;;
35084;SDS011;21267;51.032;6.998;2023-06-14T10:47:23;7.75;;;3.22;;
35084;SDS011;21267;51.032;6.998;2023-06-14T10:49:54;3.90;;;1.90;;
35084;SDS011;21267;51.032;6.998;2023-06-14T10:52:32;6.72;;;5.72;;
35084;SDS011;21267;51.032;6.998;2023-06-14T10:55:09;2.35;;;2.13;;
35084;SDS011;21267;51.032;6.998;2023-06-14T10:57:38;1.90;;;1.80;;
35084;SDS011;21267;51.032;6.998;2023-06-14T11:00:10;2.42;;;1.60;;
35084;SDS011;21267;51.032;6.998;2023-06-14T11:05:56;1.90;;;1.80;;
35084;SDS011;21267;51.032;6.998;2023-06-14T11:08:27;4.57;;;1.80;;
35084;SDS011;21267;51.032;6.998;2023-06-14T11:11:15;4.95;;;2.05;;
35084;SDS011;21267;51.032;6.998;2023-06-14T11:13:44;2.53;;;1.80;;
35084;SDS011;21267;51.032;6.998;2023-06-14T11:16:15;2.60;;;1.75;;
35084;SDS011;21267;51.032;6.998;2023-06-14T11:18:43;3.83;;;1.85;;
35084;SDS011;21267;51.032;6.998;2023-06-14T11:21:15;2.97;;;2.15;;
35084;SDS011;21267;51.032;6.998;2023-06-14T11:23:51;5.07;;;2.00;;
35084;SDS011;21267;51.032;6.998;2023-06-14T11:26:26;6.13;;;1.70;;
35084;SDS011;21267;51.032;6.998;2023-06-14T11:28:57;5.55;;;2.05;;
35084;SDS011;21267;51.032;6.998;2023-06-14T11:31:26;2.75;;;2.25;;
35084;SDS011;21267;51.032;6.998;2023-06-14T11:33:54;2.65;;;2.00;;
35084;SDS011;21267;51.032;6.998;2023-06-14T11:36:26;4.72;;;1.50;;
35084;SDS011;21267;51.032;6.998;2023-06-14T11:39:04;4.00;;;2.22;;
35084;SDS011;21267;51.032;6.998;2023-06-14T11:41:36;2.78;;;1.55;;
35084;SDS011;21267;51.032;6.998;2023-06-14T11:44:07;1.45;;;1.33;;
35084;SDS011;21267;51.032;6.998;2023-06-14T11:46:34;6.57;;;1.80;;
35084;SDS011;21267;51.032;6.998;2023-06-14T11:51:33;3.83;;;1.25;;
35084;SDS011;21267;51.032;6.998;2023-06-14T11:54:01;2.33;;;1.60;;
35084;SDS011;21267;51.032;6.998;2023-06-14T11:56:30;2.35;;;1.70;;
35084;SDS011;21267;51.032;6.998;2023-06-14T11:59:02;3.25;;;1.95;;
35084;SDS011;21267;51.032;6.998;2023-06-14T12:01:35;3.85;;;1.15;;
35084;SDS011;21267;51.032;6.998;2023-06-14T12:04:04;1.25;;;1.15;;
35084;SDS011;21267;51.032;6.998;2023-06-14T12:06:34;1.75;;;1.17;;
35084;SDS011;21267;51.032;6.998;2023-06-14T12:09:04;2.40;;;1.27;;
35084;SDS011;21267;51.032;6.998;2023-06-14T12:11:43;2.45;;;1.95;;
35084;SDS011;21267;51.032;6.998;2023-06-14T12:14:10;1.75;;;1.20;;
35084;SDS011;21267;51.032;6.998;2023-06-14T12:16:39;5.50;;;2.00;;
35084;SDS011;21267;51.032;6.998;2023-06-14T12:19:11;1.15;;;1.00;;
35084;SDS011;21267;51.032;6.998;2023-06-14T12:21:42;3.03;;;1.70;;
35084;SDS011;21267;51.032;6.998;2023-06-14T12:24:11;1.50;;;1.40;;
35084;SDS011;21267;51.032;6.998;2023-06-14T12:26:39;1.90;;;1.15;;
35084;SDS011;21267;51.032;6.998;2023-06-14T12:29:09;3.00;;;1.10;;
35084;SDS011;21267;51.032;6.998;2023-06-14T12:31:39;16.92;;;1.75;;
35084;SDS011;21267;51.032;6.998;2023-06-14T12:36:33;1.75;;;1.13;;
35084;SDS011;21267;51.032;6.998;2023-06-14T12:39:02;1.70;;;1.10;;
35084;SDS011;21267;51.032;6.998;2023-06-14T12:41:29;2.58;;;1.10;;
35084;SDS011;21267;51.032;6.998;2023-06-14T12:43:55;2.55;;;1.02;;
35084;SDS011;21267;51.032;6.998;2023-06-14T12:46:24;5.68;;;1.35;;
35084;SDS011;21267;51.032;6.998;2023-06-14T12:48:52;4.88;;;1.15;;
35084;SDS011;21267;51.032;6.998;2023-06-14T12:51:19;2.17;;;1.20;;
35084;SDS011;21267;51.032;6.998;2023-06-14T12:53:46;0.85;;;0.85;;
35084;SDS011;21267;51.032;6.998;2023-06-14T12:56:12;2.78;;;1.30;;
35084;SDS011;21267;51.032;6.998;2023-06-14T12:58:40;3.38;;;1.42;;
35084;SDS011;21267;51.032;6.998;2023-06-14T13:01:06;7.78;;;1.48;;
35084;SDS011;21267;51.032;6.998;2023-06-14T13:06:01;1.85;;;1.10;;
35084;SDS011;21267;51.032;6.998;2023-06-14T13:08:31;2.10;;;0.98;;
35084;SDS011;21267;51.032;6.998;2023-06-14T13:10:58;2.03;;;1.17;;
35084;SDS011;21267;51.032;6.998;2023-06-14T13:13:25;4.28;;;1.13;;
35084;SDS011;21267;51.032;6.998;2023-06-14T13:15:52;1.67;;;1.00;;
35084;SDS011;21267;51.032;6.998;2023-06-14T13:18:27;2.28;;;1.20;;
35084;SDS011;21267;51.032;6.998;2023-06-14T13:20:54;3.63;;;2.63;;
35084;SDS011;21267;51.032;6.998;2023-06-14T13:23:21;1.40;;;1.25;;
35084;SDS011;21267;51.032;6.998;2023-06-14T13:25:47;2.67;;;1.35;;
35084;SDS011;21267;51.032;6.998;2023-06-14T13:28:17;1.42;;;1.33;;
35084;SDS011;21267;51.032;6.998;2023-06-14T13:30:44;2.58;;;1.50;;
35084;SDS011;21267;51.032;6.998;2023-06-14T13:33:11;3.33;;;1.30;;
35084;SDS011;21267;51.032;6.998;2023-06-14T13:35:41;2.08;;;1.20;;
35084;SDS011;21267;51.032;6.998;2023-06-14T13:38:09;1.83;;;1.30;;
35084;SDS011;21267;51.032;6.998;2023-06-14T13:40:41;5.95;;;1.60;;
35084;SDS011;21267;51.032;6.998;2023-06-14T13:43:07;3.90;;;1.50;;
35084;SDS011;21267;51.032;6.998;2023-06-14T13:45:37;3.67;;;1.63;;
35084;SDS011;21267;51.032;6.998;2023-06-14T13:48:04;1.33;;;1.00;;
35084;SDS011;21267;51.032;6.998;2023-06-14T13:50:32;1.20;;;1.10;;
35084;SDS011;21267;51.032;6.998;2023-06-14T13:53:01;1.40;;;1.30;;
35084;SDS011;21267;51.032;6.998;2023-06-14T13:55:28;2.25;;;1.30;;
35084;SDS011;21267;51.032;6.998;2023-06-14T13:57:55;4.07;;;1.98;;
35084;SDS011;21267;51.032;6.998;2023-06-14T14:00:24;2.20;;;1.77;;
35084;SDS011;21267;51.032;6.998;2023-06-14T14:02:53;2.47;;;1.48;;
35084;SDS011;21267;51.032;6.998;2023-06-14T14:05:25;4.70;;;1.73;;
35084;SDS011;21267;51.032;6.998;2023-06-14T14:07:56;3.05;;;1.83;;
35084;SDS011;21267;51.032;6.998;2023-06-14T14:10:24;1.27;;;1.17;;
35084;SDS011;21267;51.032;6.998;2023-06-14T14:15:19;2.08;;;1.70;;
35084;SDS011;21267;51.032;6.998;2023-06-14T14:17:47;3.83;;;1.92;;
35084;SDS011;21267;51.032;6.998;2023-06-14T14:20:14;3.28;;;1.83;;
35084;SDS011;21267;51.032;6.998;2023-06-14T14:22:43;6.10;;;5.47;;
35084;SDS011;21267;51.032;6.998;2023-06-14T14:25:10;3.72;;;2.00;;
35084;SDS011;21267;51.032;6.998;2023-06-14T14:27:47;2.25;;;1.65;;
35084;SDS011;21267;51.032;6.998;2023-06-14T14:30:15;3.75;;;1.85;;
35084;SDS011;21267;51.032;6.998;2023-06-14T14:32:46;2.10;;;1.75;;
35084;SDS011;21267;51.032;6.998;2023-06-14T14:35:22;1.55;;;1.45;;
35084;SDS011;21267;51.032;6.998;2023-06-14T14:37:51;4.00;;;1.98;;
35084;SDS011;21267;51.032;6.998;2023-06-14T14:40:18;3.50;;;1.85;;
35084;SDS011;21267;51.032;6.998;2023-06-14T14:42:45;4.45;;;1.88;;
35084;SDS011;21267;51.032;6.998;2023-06-14T14:47:39;1.88;;;1.70;;
35084;SDS011;21267;51.032;6.998;2023-06-14T14:50:06;4.05;;;3.15;;
35084;SDS011;21267;51.032;6.998;2023-06-14T14:52:35;2.05;;;1.60;;
35084;SDS011;21267;51.032;6.998;2023-06-14T14:55:02;3.38;;;1.58;;
35084;SDS011;21267;51.032;6.998;2023-06-14T14:57:30;3.50;;;1.83;;
35084;SDS011;21267;51.032;6.998;2023-06-14T14:59:57;6.25;;;2.22;;
35084;SDS011;21267;51.032;6.998;2023-06-14T15:02:24;4.55;;;1.92;;
35084;SDS011;21267;51.032;6.998;2023-06-14T15:04:51;3.10;;;1.92;;
35084;SDS011;21267;51.032;6.998;2023-06-14T15:07:18;3.22;;;2.80;;
35084;SDS011;21267;51.032;6.998;2023-06-14T15:09:45;2.00;;;1.67;;
35084;SDS011;21267;51.032;6.998;2023-06-14T15:12:11;3.72;;;2.97;;
35084;SDS011;21267;51.032;6.998;2023-06-14T15:14:38;1.58;;;1.48;;
35084;SDS011;21267;51.032;6.998;2023-06-14T15:17:05;2.55;;;2.30;;
35084;SDS011;21267;51.032;6.998;2023-06-14T15:19:34;2.50;;;1.70;;
35084;SDS011;21267;51.032;6.998;2023-06-14T15:22:02;1.75;;;1.63;;
35084;SDS011;21267;51.032;6.998;2023-06-14T15:24:30;5.10;;;2.20;;
35084;SDS011;21267;51.032;6.998;2023-06-14T15:27:09;3.55;;;2.05;;
35084;SDS011;21267;51.032;6.998;2023-06-14T15:29:37;4.30;;;1.85;;
35084;SDS011;21267;51.032;6.998;2023-06-14T15:32:05;2.15;;;1.50;;
35084;SDS011;21267;51.032;6.998;2023-06-14T15:34:32;1.60;;;1.50;;
35084;SDS011;21267;51.032;6.998;2023-06-14T15:36:59;7.32;;;2.13;;
35084;SDS011;21267;51.032;6.998;2023-06-14T15:39:26;3.38;;;2.70;;
35084;SDS011;21267;51.032;6.998;2023-06-14T15:41:57;1.67;;;1.58;;
35084;SDS011;21267;51.032;6.998;2023-06-14T15:44:25;3.05;;;2.05;;
35084;SDS011;21267;51.032;6.998;2023-06-14T15:46:52;2.45;;;2.20;;
35084;SDS011;21267;51.032;6.998;2023-06-14T15:49:19;4.47;;;2.08;;
35084;SDS011;21267;51.032;6.998;2023-06-14T15:54:15;2.85;;;1.75;;
35084;SDS011;21267;51.032;6.998;2023-06-14T15:56:42;4.30;;;2.53;;